createdAt,value
2023-01-21T00:01:03.262Z,2.23
2023-01-21T00:03:31.055Z,2.41
2023-01-21T00:05:58.889Z,1.96
2023-01-21T00:08:26.872Z,2.28
2023-01-21T00:10:54.576Z,1.96
2023-01-21T00:13:22.405Z,2.50
2023-01-21T00:15:50.231Z,1.76
2023-01-21T00:18:17.971Z,2.25
2023-01-21T00:20:46.489Z,2.16
2023-01-21T00:23:14.369Z,2.28
2023-01-21T00:25:42.073Z,2.25
2023-01-21T00:28:09.854Z,2.36
2023-01-21T00:30:38.152Z,2.45
2023-01-21T00:33:05.912Z,1.57
2023-01-21T00:35:33.673Z,1.16
2023-01-21T00:38:01.384Z,1.60
2023-01-21T00:40:29.105Z,1.92
2023-01-21T00:42:56.838Z,2.26
2023-01-21T00:45:24.525Z,2.39
2023-01-21T00:47:52.246Z,2.34
2023-01-21T00:50:19.937Z,2.09
2023-01-21T00:52:47.767Z,2.38
2023-01-21T00:55:15.527Z,1.98
2023-01-21T00:57:43.502Z,2.16
2023-01-21T01:00:13.105Z,2.36
2023-01-21T01:02:40.897Z,2.24
2023-01-21T01:05:09.132Z,2.29
2023-01-21T01:07:37.022Z,2.24
2023-01-21T01:10:05.108Z,2.35
2023-01-21T01:12:32.889Z,2.14
2023-01-21T01:15:01.126Z,2.06
2023-01-21T01:17:28.974Z,2.24
2023-01-21T01:19:58.053Z,2.43
2023-01-21T01:22:25.837Z,1.83
2023-01-21T01:24:53.500Z,1.67
2023-01-21T01:27:21.207Z,0.97
2023-01-21T01:29:48.917Z,1.78
2023-01-21T01:32:16.739Z,1.87
2023-01-21T01:34:45.040Z,2.05
2023-01-21T01:37:12.751Z,2.23
2023-01-21T01:39:40.466Z,2.31
2023-01-21T01:42:14.053Z,2.37
2023-01-21T01:45:14.628Z,2.06
2023-01-21T01:47:59.942Z,2.08
2023-01-21T01:50:30.697Z,1.92
2023-01-21T01:52:59.866Z,1.88
2023-01-21T01:55:29.081Z,1.63
2023-01-21T01:57:56.847Z,1.21
2023-01-21T02:00:25.087Z,1.70
2023-01-21T02:03:11.914Z,1.76
2023-01-21T02:05:41.902Z,0.70
2023-01-21T02:08:09.636Z,0.67
2023-01-21T02:10:37.360Z,0.66
2023-01-21T02:13:05.106Z,0.87
2023-01-21T02:15:38.647Z,0.79
2023-01-21T02:18:58.341Z,0.15
2023-01-21T02:21:57.430Z,0.62
2023-01-21T02:24:59.762Z,0.45
2023-01-21T02:27:39.432Z,0.53
2023-01-21T02:30:37.836Z,1.20
2023-01-21T02:33:40.786Z,0.17
2023-01-21T02:36:27.092Z,0.65
2023-01-21T02:39:04.062Z,-0.37
2023-01-21T02:41:41.368Z,0.03
2023-01-21T02:44:17.438Z,-0.08
2023-01-21T02:46:49.240Z,-0.12
2023-01-21T02:49:24.477Z,-0.50
2023-01-21T02:51:52.206Z,-0.29
2023-01-21T02:54:43.163Z,0.33
2023-01-21T02:57:13.675Z,-0.43
2023-01-21T02:59:44.642Z,-0.33
2023-01-21T03:02:41.666Z,0.44
2023-01-21T03:05:34.204Z,0.48
2023-01-21T03:08:21.875Z,0.70
2023-01-21T03:11:04.610Z,0.73
2023-01-21T03:14:16.116Z,0.23
2023-01-21T03:16:59.373Z,0.34
2023-01-21T03:19:39.865Z,0.70
2023-01-21T03:22:13.912Z,0.66
2023-01-21T03:24:43.052Z,0.13
2023-01-21T03:27:11.526Z,0.36
2023-01-21T03:29:39.229Z,0.51
2023-01-21T03:32:07.329Z,1.07
2023-01-21T03:34:36.448Z,1.03
2023-01-21T03:37:09.737Z,0.85
2023-01-21T03:40:00.366Z,1.52
2023-01-21T03:42:28.196Z,0.87
2023-01-21T03:44:56.148Z,0.93
2023-01-21T03:47:34.860Z,0.69
2023-01-21T03:50:14.971Z,1.13
2023-01-21T03:52:43.702Z,0.98
2023-01-21T03:55:12.303Z,0.94
2023-01-21T03:57:40.162Z,0.86
2023-01-21T04:00:08.363Z,0.62
2023-01-21T04:02:36.127Z,0.85
2023-01-21T04:05:04.208Z,0.49
2023-01-21T04:07:31.995Z,0.83
2023-01-21T04:09:59.665Z,1.23
2023-01-21T04:12:27.345Z,1.38
2023-01-21T04:14:55.041Z,0.50
2023-01-21T04:17:22.808Z,0.03
2023-01-21T04:19:50.546Z,0.21
2023-01-21T04:22:18.355Z,0.75
2023-01-21T04:24:46.155Z,0.71
2023-01-21T04:27:13.887Z,0.14
2023-01-21T04:29:41.601Z,0.47
2023-01-21T04:32:09.392Z,0.21
2023-01-21T04:34:37.078Z,-0.08
2023-01-21T04:37:04.843Z,-0.13
2023-01-21T04:39:32.532Z,0.30
2023-01-21T04:42:00.546Z,0.62
2023-01-21T04:44:28.266Z,0.67
2023-01-21T04:46:56.030Z,0.89
2023-01-21T04:49:23.699Z,0.58
2023-01-21T04:51:51.453Z,0.67
2023-01-21T04:54:19.150Z,0.75
2023-01-21T04:56:46.857Z,0.66
2023-01-21T04:59:14.683Z,1.05
2023-01-21T05:01:42.342Z,1.06
2023-01-21T05:04:10.096Z,1.03
2023-01-21T05:06:37.840Z,0.90
2023-01-21T05:09:05.668Z,0.82
2023-01-21T05:11:33.400Z,0.62
2023-01-21T05:14:01.162Z,1.05
2023-01-21T05:16:28.963Z,0.87
2023-01-21T05:18:56.773Z,0.24
2023-01-21T05:21:24.499Z,0.77
2023-01-21T05:23:52.238Z,0.51
2023-01-21T05:26:19.911Z,1.01
2023-01-21T05:28:47.670Z,0.96
2023-01-21T05:31:15.420Z,0.79
2023-01-21T05:33:45.475Z,0.98
2023-01-21T05:36:13.161Z,0.71
2023-01-21T05:38:40.903Z,0.27
2023-01-21T05:41:08.610Z,0.23
2023-01-21T05:43:36.370Z,-0.17
2023-01-21T05:46:04.099Z,-0.25
2023-01-21T05:48:32.039Z,-0.16
2023-01-21T05:50:59.803Z,-0.29
2023-01-21T05:53:27.674Z,-0.29
2023-01-21T05:55:55.470Z,-0.22
2023-01-21T05:58:23.911Z,0.15
2023-01-21T06:00:51.625Z,0.25
2023-01-21T06:03:19.496Z,0.43
2023-01-21T06:05:48.699Z,0.24
2023-01-21T06:08:16.567Z,0.53
2023-01-21T06:10:44.387Z,0.25
2023-01-21T06:13:12.827Z,0.11
2023-01-21T06:15:40.576Z,0.05
2023-01-21T06:18:08.327Z,-0.07
2023-01-21T06:20:36.464Z,-0.60
2023-01-21T06:23:04.308Z,-0.76
2023-01-21T06:25:32.177Z,-0.07
2023-01-21T06:28:01.187Z,0.28
2023-01-21T06:30:28.943Z,0.38
2023-01-21T06:32:56.745Z,0.64
2023-01-21T06:35:24.541Z,-0.54
2023-01-21T06:37:52.287Z,0.13
2023-01-21T06:40:20.164Z,0.23
2023-01-21T06:42:48.707Z,0.43
2023-01-21T06:45:16.947Z,-0.51
2023-01-21T06:47:45.044Z,0.13
2023-01-21T06:50:14.785Z,0.82
2023-01-21T06:52:43.091Z,0.63
2023-01-21T06:55:10.876Z,0.87
2023-01-21T06:57:38.873Z,0.31
2023-01-21T07:00:07.345Z,0.93
2023-01-21T07:02:35.160Z,1.17
2023-01-21T07:05:03.653Z,1.23
2023-01-21T07:07:31.467Z,1.08
2023-01-21T07:09:59.211Z,1.10
2023-01-21T07:12:26.901Z,0.73
2023-01-21T07:14:54.590Z,1.48
2023-01-21T07:17:23.134Z,1.35
2023-01-21T07:19:50.915Z,1.54
2023-01-21T07:22:18.622Z,1.90
2023-01-21T07:24:46.417Z,1.27
2023-01-21T07:27:14.140Z,1.72
2023-01-21T07:29:41.890Z,0.99
2023-01-21T07:32:09.595Z,1.68
2023-01-21T07:34:37.333Z,1.63
2023-01-21T07:37:05.022Z,2.55
2023-01-21T07:39:32.772Z,1.40
2023-01-21T07:42:00.446Z,1.94
2023-01-21T07:44:28.197Z,3.00
2023-01-21T07:46:55.935Z,4.03
2023-01-21T07:49:23.712Z,3.40
2023-01-21T07:51:56.294Z,2.83
2023-01-21T07:54:24.051Z,1.39
2023-01-21T07:56:51.742Z,2.55
2023-01-21T07:59:19.487Z,2.59
2023-01-21T08:01:47.319Z,2.01
2023-01-21T08:04:15.229Z,1.07
2023-01-21T08:06:42.911Z,0.72
2023-01-21T08:09:10.895Z,0.85
2023-01-21T08:11:38.638Z,1.16
2023-01-21T08:14:06.405Z,1.81
2023-01-21T08:16:34.175Z,2.24
2023-01-21T08:19:02.033Z,2.42
2023-01-21T08:21:29.776Z,2.77
2023-01-21T08:23:57.494Z,1.54
2023-01-21T08:26:25.818Z,1.27
2023-01-21T08:28:54.922Z,1.24
2023-01-21T08:31:22.651Z,0.81
2023-01-21T08:33:50.486Z,0.39
2023-01-21T08:36:18.149Z,0.11
2023-01-21T08:38:48.562Z,0.73
2023-01-21T08:41:17.812Z,1.33
2023-01-21T08:43:45.510Z,0.46
2023-01-21T08:46:13.787Z,0.84
2023-01-21T08:48:41.551Z,1.23
2023-01-21T08:51:09.278Z,1.49
2023-01-21T08:53:37.036Z,1.74
2023-01-21T08:56:05.136Z,0.99
2023-01-21T08:58:33.131Z,1.38
2023-01-21T09:01:07.659Z,0.73
2023-01-21T09:03:35.501Z,1.39
2023-01-21T09:06:04.013Z,1.16
2023-01-21T09:08:31.882Z,1.73
2023-01-21T09:11:03.375Z,0.96
2023-01-21T09:13:33.112Z,0.77
2023-01-21T09:16:01.237Z,0.44
2023-01-21T09:18:29.032Z,1.37
2023-01-21T09:21:01.219Z,2.43
2023-01-21T09:23:32.187Z,2.59
2023-01-21T09:26:06.782Z,2.75
2023-01-21T09:28:36.265Z,1.92
2023-01-21T09:31:08.654Z,4.53
2023-01-21T09:33:37.877Z,5.25
2023-01-21T09:36:06.712Z,4.12
2023-01-21T09:38:34.592Z,3.82
2023-01-21T09:41:11.725Z,3.66
2023-01-21T09:43:41.546Z,2.42
2023-01-21T09:46:15.345Z,3.46
2023-01-21T09:48:45.116Z,2.98
2023-01-21T09:51:49.695Z,3.53
2023-01-21T09:54:26.606Z,3.89
2023-01-21T09:57:08.650Z,3.56
2023-01-21T10:00:07.520Z,3.03
2023-01-21T10:03:05.763Z,3.82
2023-01-21T10:05:40.356Z,4.31
2023-01-21T10:08:24.593Z,3.71
2023-01-21T10:11:21.550Z,4.41
2023-01-21T10:14:00.988Z,4.63
2023-01-21T10:16:39.952Z,4.10
2023-01-21T10:19:11.039Z,3.43
2023-01-21T10:22:01.055Z,3.53
2023-01-21T10:24:53.927Z,4.55
2023-01-21T10:27:25.119Z,4.96
2023-01-21T10:29:57.166Z,5.03
2023-01-21T10:32:27.983Z,4.65
2023-01-21T10:34:58.160Z,5.03
2023-01-21T10:37:48.508Z,4.90
2023-01-21T10:40:42.148Z,5.40
2023-01-21T10:43:25.121Z,5.34
2023-01-21T10:46:03.070Z,5.44
2023-01-21T10:48:34.511Z,5.10
2023-01-21T10:51:29.818Z,5.13
2023-01-21T10:54:41.919Z,5.76
2023-01-21T10:57:13.839Z,6.15
2023-01-21T10:59:42.465Z,5.70
2023-01-21T11:02:19.355Z,5.67
2023-01-21T11:04:49.327Z,5.68
2023-01-21T11:07:19.921Z,6.48
2023-01-21T11:09:50.568Z,6.05
2023-01-21T11:12:21.033Z,5.92
2023-01-21T11:15:02.277Z,6.03
2023-01-21T11:17:36.005Z,5.87
2023-01-21T11:20:07.341Z,5.94
2023-01-21T11:22:43.156Z,6.55
2023-01-21T11:25:36.597Z,6.47
2023-01-21T11:28:05.751Z,7.23
2023-01-21T11:30:50.678Z,6.33
2023-01-21T11:33:20.471Z,6.45
2023-01-21T11:35:51.498Z,6.15
2023-01-21T11:38:34.461Z,6.31
2023-01-21T11:41:26.022Z,6.79
2023-01-21T11:44:19.413Z,7.36
2023-01-21T11:46:48.119Z,7.76
2023-01-21T11:49:21.814Z,6.77
2023-01-21T11:51:50.870Z,7.56
2023-01-21T11:54:24.274Z,7.54
2023-01-21T11:56:59.926Z,7.51
2023-01-21T11:59:39.776Z,7.70
2023-01-21T12:02:17.126Z,7.76
2023-01-21T12:04:52.729Z,8.92
2023-01-21T12:07:29.750Z,7.88
2023-01-21T12:10:14.156Z,7.61
2023-01-21T12:12:48.799Z,8.38
2023-01-21T12:15:52.418Z,8.11
2023-01-21T12:18:35.046Z,8.58
2023-01-21T12:21:19.901Z,8.14
2023-01-21T12:24:09.539Z,8.69
2023-01-21T12:26:48.355Z,8.17
2023-01-21T12:29:45.079Z,8.08
2023-01-21T12:32:23.743Z,8.03
2023-01-21T12:35:18.592Z,7.42
2023-01-21T12:37:52.805Z,6.76
2023-01-21T12:40:33.006Z,8.11
2023-01-21T12:43:15.219Z,8.66
2023-01-21T12:46:02.209Z,8.14
2023-01-21T12:48:35.088Z,8.97
2023-01-21T12:51:12.049Z,7.56
2023-01-21T12:54:06.949Z,7.19
2023-01-21T12:57:01.155Z,8.58
2023-01-21T12:59:39.269Z,8.51
2023-01-21T13:02:49.696Z,7.09
2023-01-21T13:05:28.763Z,7.04
2023-01-21T13:08:05.682Z,6.95
2023-01-21T13:10:42.695Z,7.41
2023-01-21T13:13:35.742Z,7.19
2023-01-21T13:16:08.152Z,7.11
2023-01-21T13:18:39.210Z,6.33
2023-01-21T13:21:28.314Z,6.30
2023-01-21T13:24:22.300Z,6.28
2023-01-21T13:26:55.362Z,6.59
2023-01-21T13:29:45.244Z,6.98
2023-01-21T13:32:33.290Z,6.50
2023-01-21T13:35:07.544Z,5.91
2023-01-21T13:37:53.124Z,6.94
2023-01-21T13:40:36.525Z,6.78
2023-01-21T13:43:24.843Z,6.97
2023-01-21T13:45:55.300Z,7.25
2023-01-21T13:48:35.038Z,7.44
2023-01-21T13:51:19.477Z,6.39
2023-01-21T13:54:21.498Z,6.26
2023-01-21T13:57:04.458Z,6.63
2023-01-21T13:59:36.694Z,6.89
2023-01-21T14:02:35.614Z,6.88
2023-01-21T14:05:23.361Z,6.04
2023-01-21T14:07:57.496Z,6.04
2023-01-21T14:10:35.875Z,5.53
2023-01-21T14:13:27.634Z,5.84
2023-01-21T14:16:18.662Z,5.98
2023-01-21T14:18:50.657Z,6.36
2023-01-21T14:21:18.303Z,6.81
2023-01-21T14:24:01.654Z,7.09
2023-01-21T14:26:38.351Z,7.29
2023-01-21T14:29:14.006Z,6.65
2023-01-21T14:31:47.338Z,6.81
2023-01-21T14:34:19.269Z,6.45
2023-01-21T14:37:06.603Z,7.32
2023-01-21T14:40:08.226Z,7.19
2023-01-21T14:42:43.992Z,6.57
2023-01-21T14:45:13.160Z,5.67
2023-01-21T14:47:45.646Z,5.94
2023-01-21T14:50:43.367Z,5.74
2023-01-21T14:53:19.109Z,6.19
2023-01-21T14:55:46.839Z,6.42
2023-01-21T14:58:23.208Z,6.95
2023-01-21T15:00:50.963Z,6.75
2023-01-21T15:03:27.372Z,6.05
2023-01-21T15:05:56.839Z,6.39
2023-01-21T15:08:29.902Z,6.18
2023-01-21T15:11:06.681Z,6.65
2023-01-21T15:13:34.537Z,6.90
2023-01-21T15:16:06.594Z,7.07
2023-01-21T15:18:36.159Z,7.27
2023-01-21T15:21:33.549Z,7.14
2023-01-21T15:24:24.589Z,7.45
2023-01-21T15:27:27.880Z,7.30
2023-01-21T15:29:58.931Z,7.01
2023-01-21T15:32:32.370Z,7.11
2023-01-21T15:35:18.070Z,7.27
2023-01-21T15:37:46.837Z,7.27
2023-01-21T15:40:26.074Z,7.24
2023-01-21T15:43:12.462Z,7.02
2023-01-21T15:46:01.439Z,6.84
2023-01-21T15:48:55.232Z,6.93
2023-01-21T15:51:34.723Z,6.62
2023-01-21T15:54:33.277Z,6.73
2023-01-21T15:57:23.967Z,7.04
2023-01-21T16:00:01.468Z,6.98
2023-01-21T16:02:32.107Z,6.71
2023-01-21T16:05:18.320Z,6.67
2023-01-21T16:07:58.225Z,6.36
2023-01-21T16:10:51.497Z,6.43
2023-01-21T16:13:28.703Z,6.18
2023-01-21T16:16:06.291Z,6.60
2023-01-21T16:18:59.248Z,6.35
2023-01-21T16:21:33.026Z,6.30
2023-01-21T16:24:09.828Z,6.12
2023-01-21T16:26:37.541Z,6.13
2023-01-21T16:29:11.255Z,6.27
2023-01-21T16:31:46.123Z,6.33
2023-01-21T16:34:14.039Z,5.93
2023-01-21T16:36:41.706Z,5.86
2023-01-21T16:39:09.552Z,5.67
2023-01-21T16:41:37.431Z,5.73
2023-01-21T16:44:05.534Z,6.02
2023-01-21T16:46:36.319Z,5.43
2023-01-21T16:49:12.164Z,5.67
2023-01-21T16:51:41.207Z,5.59
2023-01-21T16:54:17.941Z,5.92
2023-01-21T16:56:51.922Z,5.80
2023-01-21T16:59:45.705Z,5.80
2023-01-21T17:02:17.780Z,5.72
2023-01-21T17:04:45.650Z,5.36
2023-01-21T17:07:15.561Z,5.25
2023-01-21T17:09:43.273Z,5.49
2023-01-21T17:12:16.737Z,5.34
2023-01-21T17:14:44.510Z,5.42
2023-01-21T17:17:19.568Z,4.57
2023-01-21T17:19:47.307Z,4.69
2023-01-21T17:22:20.666Z,4.74
2023-01-21T17:25:25.770Z,4.35
2023-01-21T17:27:58.483Z,4.42
2023-01-21T17:30:32.001Z,4.18
2023-01-21T17:33:04.918Z,4.21
2023-01-21T17:35:35.126Z,4.32
2023-01-21T17:38:07.225Z,4.79
2023-01-21T17:40:46.271Z,4.48
2023-01-21T17:43:25.859Z,4.16
2023-01-21T17:45:58.235Z,4.83
2023-01-21T17:48:41.510Z,4.67
2023-01-21T17:51:26.611Z,3.86
2023-01-21T17:54:04.997Z,4.41
2023-01-21T17:56:52.277Z,3.62
2023-01-21T17:59:43.669Z,3.57
2023-01-21T18:02:19.143Z,3.09
2023-01-21T18:04:48.516Z,4.10
2023-01-21T18:07:25.201Z,3.96
2023-01-21T18:09:55.113Z,4.34
2023-01-21T18:12:23.675Z,4.94
2023-01-21T18:14:53.335Z,4.79
2023-01-21T18:17:23.702Z,4.98
2023-01-21T18:19:53.981Z,5.27
2023-01-21T18:22:30.108Z,5.20
2023-01-21T18:25:00.873Z,5.23
2023-01-21T18:27:30.973Z,5.04
2023-01-21T18:30:00.287Z,5.08
2023-01-21T18:32:29.756Z,5.05
2023-01-21T18:35:00.960Z,5.10
2023-01-21T18:37:31.859Z,5.19
2023-01-21T18:40:01.848Z,5.36
2023-01-21T18:42:31.540Z,5.08
2023-01-21T18:45:03.217Z,4.98
2023-01-21T18:47:36.138Z,5.23
2023-01-21T18:50:07.721Z,4.49
2023-01-21T18:52:39.927Z,5.01
2023-01-21T18:55:11.053Z,4.99
2023-01-21T18:57:43.923Z,4.86
2023-01-21T19:00:35.457Z,4.62
2023-01-21T19:03:08.128Z,4.63
2023-01-21T19:05:42.471Z,4.94
2023-01-21T19:08:19.622Z,4.64
2023-01-21T19:10:52.207Z,4.75
2023-01-21T19:13:25.356Z,4.52
2023-01-21T19:15:59.732Z,4.26
2023-01-21T19:18:31.016Z,4.65
2023-01-21T19:21:01.733Z,4.65
2023-01-21T19:23:34.199Z,4.58
2023-01-21T19:26:05.194Z,3.84
2023-01-21T19:28:34.211Z,4.29
2023-01-21T19:31:06.375Z,4.22
2023-01-21T19:33:37.579Z,4.46
2023-01-21T19:36:17.484Z,4.29
2023-01-21T19:39:03.085Z,4.29
2023-01-21T19:41:34.470Z,4.33
2023-01-21T19:44:05.135Z,3.74
2023-01-21T19:46:36.862Z,3.46
2023-01-21T19:49:18.782Z,3.93
2023-01-21T19:51:51.698Z,3.68
2023-01-21T19:54:21.961Z,3.77
2023-01-21T19:56:51.088Z,3.98
2023-01-21T19:59:22.030Z,4.12
2023-01-21T20:01:52.843Z,3.82
2023-01-21T20:04:23.226Z,3.89
2023-01-21T20:06:52.299Z,3.64
2023-01-21T20:09:21.332Z,3.87
2023-01-21T20:11:50.442Z,3.70
2023-01-21T20:14:22.555Z,3.88
2023-01-21T20:16:56.372Z,3.86
2023-01-21T20:19:27.066Z,3.74
2023-01-21T20:22:02.451Z,3.48
2023-01-21T20:24:34.010Z,3.04
2023-01-21T20:27:02.471Z,3.14
2023-01-21T20:29:30.135Z,2.97
2023-01-21T20:31:58.387Z,3.36
2023-01-21T20:34:27.708Z,3.38
2023-01-21T20:36:55.516Z,3.51
2023-01-21T20:39:24.222Z,3.58
2023-01-21T20:41:51.988Z,3.54
2023-01-21T20:44:19.792Z,3.30
2023-01-21T20:46:47.847Z,3.43
2023-01-21T20:49:15.507Z,3.52
2023-01-21T20:51:43.234Z,3.24
2023-01-21T20:54:10.919Z,3.34
2023-01-21T20:56:38.693Z,3.16
2023-01-21T20:59:06.378Z,2.54
2023-01-21T21:01:34.995Z,3.19
2023-01-21T21:04:02.852Z,3.38
2023-01-21T21:06:30.847Z,2.46
2023-01-21T21:08:58.593Z,2.91
2023-01-21T21:11:26.350Z,2.47
2023-01-21T21:13:54.115Z,2.94
2023-01-21T21:16:27.831Z,3.05
2023-01-21T21:18:56.293Z,2.56
2023-01-21T21:21:24.347Z,2.82
2023-01-21T21:23:52.836Z,2.11
2023-01-21T21:26:22.997Z,2.61
2023-01-21T21:28:51.544Z,1.92
2023-01-21T21:31:19.335Z,2.24
2023-01-21T21:33:47.116Z,2.24
2023-01-21T21:36:15.606Z,2.23
2023-01-21T21:38:43.805Z,2.20
2023-01-21T21:41:39.962Z,2.61
2023-01-21T21:44:08.294Z,2.00
2023-01-21T21:46:57.653Z,2.67
2023-01-21T21:49:25.419Z,2.48
2023-01-21T21:51:53.148Z,2.69
2023-01-21T21:54:20.992Z,2.63
2023-01-21T21:56:48.781Z,2.01
2023-01-21T21:59:16.696Z,2.27
2023-01-21T22:01:44.543Z,2.42
2023-01-21T22:04:12.335Z,1.84
2023-01-21T22:06:40.184Z,1.82
2023-01-21T22:09:08.154Z,2.22
2023-01-21T22:11:35.901Z,1.73
2023-01-21T22:14:04.341Z,1.80
2023-01-21T22:16:32.716Z,2.45
2023-01-21T22:19:00.734Z,2.25
2023-01-21T22:21:31.830Z,1.39
2023-01-21T22:24:00.759Z,1.68
2023-01-21T22:26:28.703Z,1.95
2023-01-21T22:28:56.495Z,1.81
2023-01-21T22:31:25.768Z,1.68
2023-01-21T22:33:53.603Z,1.58
2023-01-21T22:36:22.689Z,2.17
2023-01-21T22:38:50.699Z,1.66
2023-01-21T22:41:20.647Z,1.66
2023-01-21T22:43:48.637Z,1.66
2023-01-21T22:46:19.218Z,1.07
2023-01-21T22:48:47.137Z,1.44
2023-01-21T22:51:15.895Z,1.35
2023-01-21T22:53:46.533Z,1.85
2023-01-21T22:56:14.817Z,1.25
2023-01-21T22:58:42.568Z,1.68
2023-01-21T23:01:31.190Z,2.20
2023-01-21T23:03:59.923Z,1.62
2023-01-21T23:06:27.658Z,2.12
2023-01-21T23:08:55.761Z,1.36
2023-01-21T23:11:23.543Z,1.92
2023-01-21T23:13:53.355Z,1.52
2023-01-21T23:16:21.241Z,1.60
2023-01-21T23:18:49.008Z,1.40
2023-01-21T23:21:21.114Z,1.04
2023-01-21T23:23:49.189Z,1.62
2023-01-21T23:26:19.190Z,1.83
2023-01-21T23:28:47.355Z,1.85
2023-01-21T23:31:16.641Z,2.31
2023-01-21T23:33:44.708Z,2.14
2023-01-21T23:36:13.561Z,1.05
2023-01-21T23:38:41.717Z,1.81
2023-01-21T23:41:11.563Z,2.00
2023-01-21T23:43:39.457Z,2.07
2023-01-21T23:46:08.718Z,2.09
2023-01-21T23:48:36.549Z,2.31
2023-01-21T23:51:04.952Z,1.94
2023-01-21T23:53:33.029Z,2.33
2023-01-21T23:56:08.336Z,2.07
2023-01-21T23:58:36.197Z,1.83
